sensor_id;sensor_type;location;lat;lon;timestamp;P1;durP1;ratioP1;P2;durP2;ratioP2
78985;SDS011;68384;55.750;48.746;2023-03-23T00:00:24;11.30;;;6.20;;
78985;SDS011;68384;55.750;48.746;2023-03-23T00:01:28;10.40;;;5.28;;
78985;SDS011;68384;55.750;48.746;2023-03-23T00:02:37;10.90;;;5.13;;
78985;SDS011;68384;55.750;48.746;2023-03-23T00:03:39;8.50;;;4.95;;
78985;SDS011;68384;55.750;48.746;2023-03-23T00:04:43;7.63;;;4.90;;
78985;SDS011;68384;55.750;48.746;2023-03-23T00:05:44;9.30;;;5.40;;
78985;SDS011;68384;55.750;48.746;2023-03-23T00:06:50;9.73;;;4.97;;
78985;SDS011;68384;55.750;48.746;2023-03-23T00:07:51;7.78;;;5.00;;
78985;SDS011;68384;55.750;48.746;2023-03-23T00:09:59;11.25;;;4.88;;
78985;SDS011;68384;55.750;48.746;2023-03-23T00:11:03;10.57;;;5.57;;
78985;SDS011;68384;55.750;48.746;2023-03-23T00:12:05;7.78;;;4.72;;
78985;SDS011;68384;55.750;48.746;2023-03-23T00:13:07;9.10;;;5.18;;
78985;SDS011;68384;55.750;48.746;2023-03-23T00:14:09;9.07;;;5.28;;
78985;SDS011;68384;55.750;48.746;2023-03-23T00:15:14;7.82;;;5.22;;
78985;SDS011;68384;55.750;48.746;2023-03-23T00:16:17;8.95;;;5.05;;
78985;SDS011;68384;55.750;48.746;2023-03-23T00:17:22;8.45;;;5.13;;
78985;SDS011;68384;55.750;48.746;2023-03-23T00:18:24;9.55;;;5.13;;
78985;SDS011;68384;55.750;48.746;2023-03-23T00:19:26;8.77;;;5.28;;
78985;SDS011;68384;55.750;48.746;2023-03-23T00:20:28;8.93;;;5.22;;
78985;SDS011;68384;55.750;48.746;2023-03-23T00:21:32;8.80;;;4.93;;
78985;SDS011;68384;55.750;48.746;2023-03-23T00:22:35;8.90;;;5.20;;
78985;SDS011;68384;55.750;48.746;2023-03-23T00:23:38;10.02;;;5.60;;
78985;SDS011;68384;55.750;48.746;2023-03-23T00:24:40;7.90;;;4.80;;
78985;SDS011;68384;55.750;48.746;2023-03-23T00:25:45;10.40;;;4.90;;
78985;SDS011;68384;55.750;48.746;2023-03-23T00:26:47;9.43;;;5.65;;
78985;SDS011;68384;55.750;48.746;2023-03-23T00:27:51;8.25;;;5.60;;
78985;SDS011;68384;55.750;48.746;2023-03-23T00:28:53;8.00;;;5.07;;
78985;SDS011;68384;55.750;48.746;2023-03-23T00:29:55;9.57;;;5.28;;
78985;SDS011;68384;55.750;48.746;2023-03-23T00:30:57;8.85;;;5.18;;
78985;SDS011;68384;55.750;48.746;2023-03-23T00:32:01;7.43;;;4.82;;
78985;SDS011;68384;55.750;48.746;2023-03-23T00:33:04;10.25;;;5.30;;
78985;SDS011;68384;55.750;48.746;2023-03-23T00:35:08;8.55;;;4.88;;
78985;SDS011;68384;55.750;48.746;2023-03-23T00:36:11;8.85;;;5.38;;
78985;SDS011;68384;55.750;48.746;2023-03-23T00:37:13;7.75;;;5.35;;
78985;SDS011;68384;55.750;48.746;2023-03-23T00:38:17;8.00;;;5.10;;
78985;SDS011;68384;55.750;48.746;2023-03-23T00:39:19;9.73;;;5.40;;
78985;SDS011;68384;55.750;48.746;2023-03-23T00:40:24;9.15;;;5.63;;
78985;SDS011;68384;55.750;48.746;2023-03-23T00:41:27;9.52;;;5.55;;
78985;SDS011;68384;55.750;48.746;2023-03-23T00:42:30;7.75;;;4.97;;
78985;SDS011;68384;55.750;48.746;2023-03-23T00:43:36;9.45;;;5.57;;
78985;SDS011;68384;55.750;48.746;2023-03-23T00:44:39;9.02;;;5.40;;
78985;SDS011;68384;55.750;48.746;2023-03-23T00:45:41;8.30;;;5.32;;
78985;SDS011;68384;55.750;48.746;2023-03-23T00:46:45;8.95;;;5.20;;
78985;SDS011;68384;55.750;48.746;2023-03-23T00:47:49;9.15;;;5.03;;
78985;SDS011;68384;55.750;48.746;2023-03-23T00:48:53;7.18;;;5.55;;
78985;SDS011;68384;55.750;48.746;2023-03-23T00:50:57;8.00;;;4.85;;
78985;SDS011;68384;55.750;48.746;2023-03-23T00:51:58;8.57;;;5.63;;
78985;SDS011;68384;55.750;48.746;2023-03-23T00:53:01;8.68;;;5.97;;
78985;SDS011;68384;55.750;48.746;2023-03-23T00:54:03;9.70;;;5.25;;
78985;SDS011;68384;55.750;48.746;2023-03-23T00:55:05;9.40;;;5.55;;
78985;SDS011;68384;55.750;48.746;2023-03-23T00:56:08;10.35;;;5.63;;
78985;SDS011;68384;55.750;48.746;2023-03-23T00:57:10;11.07;;;6.07;;
78985;SDS011;68384;55.750;48.746;2023-03-23T00:58:12;11.30;;;5.82;;
78985;SDS011;68384;55.750;48.746;2023-03-23T00:59:15;10.38;;;5.72;;
78985;SDS011;68384;55.750;48.746;2023-03-23T01:00:17;8.10;;;5.43;;
78985;SDS011;68384;55.750;48.746;2023-03-23T01:01:19;9.40;;;5.78;;
78985;SDS011;68384;55.750;48.746;2023-03-23T01:02:22;10.57;;;6.68;;
78985;SDS011;68384;55.750;48.746;2023-03-23T01:03:25;9.10;;;5.55;;
78985;SDS011;68384;55.750;48.746;2023-03-23T01:04:30;9.13;;;5.72;;
78985;SDS011;68384;55.750;48.746;2023-03-23T01:05:34;9.93;;;6.20;;
78985;SDS011;68384;55.750;48.746;2023-03-23T01:06:36;10.43;;;6.25;;
78985;SDS011;68384;55.750;48.746;2023-03-23T01:07:39;8.95;;;5.88;;
78985;SDS011;68384;55.750;48.746;2023-03-23T01:08:41;10.68;;;5.80;;
78985;SDS011;68384;55.750;48.746;2023-03-23T01:10:48;8.27;;;5.30;;
78985;SDS011;68384;55.750;48.746;2023-03-23T01:11:50;9.98;;;6.22;;
78985;SDS011;68384;55.750;48.746;2023-03-23T01:12:53;9.60;;;5.53;;
78985;SDS011;68384;55.750;48.746;2023-03-23T01:13:55;9.27;;;6.00;;
78985;SDS011;68384;55.750;48.746;2023-03-23T01:14:57;9.70;;;5.80;;
78985;SDS011;68384;55.750;48.746;2023-03-23T01:15:59;10.13;;;5.75;;
78985;SDS011;68384;55.750;48.746;2023-03-23T01:17:01;10.77;;;5.40;;
78985;SDS011;68384;55.750;48.746;2023-03-23T01:18:03;10.77;;;6.20;;
78985;SDS011;68384;55.750;48.746;2023-03-23T01:19:05;7.50;;;4.75;;
78985;SDS011;68384;55.750;48.746;2023-03-23T01:20:08;8.88;;;5.72;;
78985;SDS011;68384;55.750;48.746;2023-03-23T01:21:12;8.43;;;5.35;;
78985;SDS011;68384;55.750;48.746;2023-03-23T01:22:15;8.90;;;6.22;;
78985;SDS011;68384;55.750;48.746;2023-03-23T01:23:17;17.75;;;6.13;;
78985;SDS011;68384;55.750;48.746;2023-03-23T01:24:19;9.40;;;5.88;;
78985;SDS011;68384;55.750;48.746;2023-03-23T01:25:21;10.40;;;6.20;;
78985;SDS011;68384;55.750;48.746;2023-03-23T01:26:23;10.05;;;5.78;;
78985;SDS011;68384;55.750;48.746;2023-03-23T01:27:27;8.90;;;6.47;;
78985;SDS011;68384;55.750;48.746;2023-03-23T01:28:28;9.20;;;5.90;;
78985;SDS011;68384;55.750;48.746;2023-03-23T01:29:31;7.72;;;5.63;;
78985;SDS011;68384;55.750;48.746;2023-03-23T01:30:32;8.23;;;5.70;;
78985;SDS011;68384;55.750;48.746;2023-03-23T01:31:34;8.35;;;5.25;;
78985;SDS011;68384;55.750;48.746;2023-03-23T01:32:37;9.13;;;5.43;;
78985;SDS011;68384;55.750;48.746;2023-03-23T01:33:40;9.60;;;5.82;;
78985;SDS011;68384;55.750;48.746;2023-03-23T01:34:42;8.15;;;5.53;;
78985;SDS011;68384;55.750;48.746;2023-03-23T01:35:46;8.38;;;5.50;;
78985;SDS011;68384;55.750;48.746;2023-03-23T01:36:47;9.02;;;5.57;;
78985;SDS011;68384;55.750;48.746;2023-03-23T01:37:49;10.27;;;6.07;;
78985;SDS011;68384;55.750;48.746;2023-03-23T01:38:51;8.32;;;5.53;;
78985;SDS011;68384;55.750;48.746;2023-03-23T01:39:55;8.43;;;5.80;;
78985;SDS011;68384;55.750;48.746;2023-03-23T01:40:58;7.80;;;4.90;;
78985;SDS011;68384;55.750;48.746;2023-03-23T01:42:00;10.88;;;6.25;;
78985;SDS011;68384;55.750;48.746;2023-03-23T01:43:02;10.45;;;5.80;;
78985;SDS011;68384;55.750;48.746;2023-03-23T01:44:04;8.82;;;5.85;;
78985;SDS011;68384;55.750;48.746;2023-03-23T01:46:29;9.20;;;5.75;;
78985;SDS011;68384;55.750;48.746;2023-03-23T01:47:33;8.98;;;5.45;;
78985;SDS011;68384;55.750;48.746;2023-03-23T01:48:35;9.45;;;6.28;;
78985;SDS011;68384;55.750;48.746;2023-03-23T01:49:40;9.93;;;6.32;;
78985;SDS011;68384;55.750;48.746;2023-03-23T01:50:48;11.45;;;6.45;;
78985;SDS011;68384;55.750;48.746;2023-03-23T01:51:55;9.52;;;5.55;;
78985;SDS011;68384;55.750;48.746;2023-03-23T01:53:01;11.23;;;5.95;;
78985;SDS011;68384;55.750;48.746;2023-03-23T01:54:07;9.07;;;5.90;;
78985;SDS011;68384;55.750;48.746;2023-03-23T01:55:14;11.18;;;6.13;;
78985;SDS011;68384;55.750;48.746;2023-03-23T01:56:16;9.98;;;5.78;;
78985;SDS011;68384;55.750;48.746;2023-03-23T01:57:25;10.15;;;5.80;;
78985;SDS011;68384;55.750;48.746;2023-03-23T01:58:28;10.35;;;6.10;;
78985;SDS011;68384;55.750;48.746;2023-03-23T01:59:33;8.48;;;5.80;;
78985;SDS011;68384;55.750;48.746;2023-03-23T02:00:36;8.52;;;5.57;;
78985;SDS011;68384;55.750;48.746;2023-03-23T02:01:41;10.90;;;6.32;;
78985;SDS011;68384;55.750;48.746;2023-03-23T02:02:46;9.13;;;5.85;;
78985;SDS011;68384;55.750;48.746;2023-03-23T02:03:51;11.73;;;5.78;;
78985;SDS011;68384;55.750;48.746;2023-03-23T02:04:55;9.80;;;6.32;;
78985;SDS011;68384;55.750;48.746;2023-03-23T02:06:02;9.20;;;6.40;;
78985;SDS011;68384;55.750;48.746;2023-03-23T02:07:05;11.35;;;6.75;;
78985;SDS011;68384;55.750;48.746;2023-03-23T02:08:07;11.13;;;6.18;;
78985;SDS011;68384;55.750;48.746;2023-03-23T02:09:11;11.25;;;6.60;;
78985;SDS011;68384;55.750;48.746;2023-03-23T02:10:14;12.13;;;6.50;;
78985;SDS011;68384;55.750;48.746;2023-03-23T02:11:17;10.95;;;6.35;;
78985;SDS011;68384;55.750;48.746;2023-03-23T02:12:19;10.00;;;6.03;;
78985;SDS011;68384;55.750;48.746;2023-03-23T02:13:22;8.60;;;5.30;;
78985;SDS011;68384;55.750;48.746;2023-03-23T02:14:23;13.27;;;6.32;;
78985;SDS011;68384;55.750;48.746;2023-03-23T02:15:50;10.98;;;6.30;;
78985;SDS011;68384;55.750;48.746;2023-03-23T02:17:02;9.60;;;5.82;;
78985;SDS011;68384;55.750;48.746;2023-03-23T02:18:11;12.40;;;6.40;;
78985;SDS011;68384;55.750;48.746;2023-03-23T02:19:26;9.15;;;5.85;;
78985;SDS011;68384;55.750;48.746;2023-03-23T02:20:48;11.95;;;6.00;;
78985;SDS011;68384;55.750;48.746;2023-03-23T02:25:53;11.70;;;6.22;;
78985;SDS011;68384;55.750;48.746;2023-03-23T02:27:07;9.95;;;6.35;;
78985;SDS011;68384;55.750;48.746;2023-03-23T02:28:16;11.05;;;6.05;;
78985;SDS011;68384;55.750;48.746;2023-03-23T02:29:44;9.27;;;5.80;;
78985;SDS011;68384;55.750;48.746;2023-03-23T02:31:00;10.63;;;6.50;;
78985;SDS011;68384;55.750;48.746;2023-03-23T02:32:22;12.05;;;6.70;;
78985;SDS011;68384;55.750;48.746;2023-03-23T02:33:45;11.10;;;6.32;;
78985;SDS011;68384;55.750;48.746;2023-03-23T02:35:54;11.25;;;6.53;;
78985;SDS011;68384;55.750;48.746;2023-03-23T02:37:02;10.55;;;5.70;;
78985;SDS011;68384;55.750;48.746;2023-03-23T02:38:09;14.25;;;7.43;;
78985;SDS011;68384;55.750;48.746;2023-03-23T02:39:17;10.38;;;6.72;;
78985;SDS011;68384;55.750;48.746;2023-03-23T02:40:23;12.10;;;7.18;;
78985;SDS011;68384;55.750;48.746;2023-03-23T02:41:30;12.13;;;6.90;;
78985;SDS011;68384;55.750;48.746;2023-03-23T02:42:36;14.15;;;7.63;;
78985;SDS011;68384;55.750;48.746;2023-03-23T02:43:40;11.07;;;7.07;;
78985;SDS011;68384;55.750;48.746;2023-03-23T02:44:45;13.18;;;7.45;;
78985;SDS011;68384;55.750;48.746;2023-03-23T02:45:50;12.10;;;7.65;;
78985;SDS011;68384;55.750;48.746;2023-03-23T02:46:53;12.27;;;7.00;;
78985;SDS011;68384;55.750;48.746;2023-03-23T02:47:56;13.63;;;7.38;;
78985;SDS011;68384;55.750;48.746;2023-03-23T02:49:00;11.48;;;7.07;;
78985;SDS011;68384;55.750;48.746;2023-03-23T02:50:05;12.15;;;7.60;;
78985;SDS011;68384;55.750;48.746;2023-03-23T02:51:11;12.50;;;7.95;;
78985;SDS011;68384;55.750;48.746;2023-03-23T02:52:15;12.15;;;7.60;;
78985;SDS011;68384;55.750;48.746;2023-03-23T02:53:20;13.90;;;8.25;;
78985;SDS011;68384;55.750;48.746;2023-03-23T02:54:26;13.77;;;7.28;;
78985;SDS011;68384;55.750;48.746;2023-03-23T02:55:28;12.80;;;7.82;;
78985;SDS011;68384;55.750;48.746;2023-03-23T02:56:32;13.10;;;7.70;;
78985;SDS011;68384;55.750;48.746;2023-03-23T02:57:35;14.68;;;8.43;;
78985;SDS011;68384;55.750;48.746;2023-03-23T02:58:39;11.95;;;6.97;;
78985;SDS011;68384;55.750;48.746;2023-03-23T02:59:40;13.82;;;7.43;;
78985;SDS011;68384;55.750;48.746;2023-03-23T03:00:43;14.15;;;7.47;;
78985;SDS011;68384;55.750;48.746;2023-03-23T03:03:12;13.10;;;7.55;;
78985;SDS011;68384;55.750;48.746;2023-03-23T03:04:18;15.13;;;8.68;;
78985;SDS011;68384;55.750;48.746;2023-03-23T03:05:27;12.02;;;7.63;;
78985;SDS011;68384;55.750;48.746;2023-03-23T03:06:37;13.18;;;7.90;;
78985;SDS011;68384;55.750;48.746;2023-03-23T03:07:50;13.57;;;7.55;;
78985;SDS011;68384;55.750;48.746;2023-03-23T03:09:02;13.10;;;7.43;;
78985;SDS011;68384;55.750;48.746;2023-03-23T03:10:13;13.52;;;8.00;;
78985;SDS011;68384;55.750;48.746;2023-03-23T03:11:21;12.57;;;7.97;;
78985;SDS011;68384;55.750;48.746;2023-03-23T03:12:31;14.52;;;8.32;;
78985;SDS011;68384;55.750;48.746;2023-03-23T03:13:41;13.15;;;7.47;;
78985;SDS011;68384;55.750;48.746;2023-03-23T03:14:50;13.77;;;7.55;;
78985;SDS011;68384;55.750;48.746;2023-03-23T03:15:59;12.60;;;7.32;;
78985;SDS011;68384;55.750;48.746;2023-03-23T03:17:08;12.95;;;7.82;;
78985;SDS011;68384;55.750;48.746;2023-03-23T03:18:16;13.95;;;8.23;;
78985;SDS011;68384;55.750;48.746;2023-03-23T03:19:26;13.00;;;7.47;;
78985;SDS011;68384;55.750;48.746;2023-03-23T03:20:30;11.75;;;7.70;;
78985;SDS011;68384;55.750;48.746;2023-03-23T03:21:35;12.27;;;7.60;;
78985;SDS011;68384;55.750;48.746;2023-03-23T03:22:39;15.50;;;8.40;;
78985;SDS011;68384;55.750;48.746;2023-03-23T03:23:44;14.10;;;7.90;;
78985;SDS011;68384;55.750;48.746;2023-03-23T03:24:49;12.20;;;7.88;;
78985;SDS011;68384;55.750;48.746;2023-03-23T03:25:57;14.73;;;7.40;;
78985;SDS011;68384;55.750;48.746;2023-03-23T03:27:00;12.82;;;8.10;;
78985;SDS011;68384;55.750;48.746;2023-03-23T03:28:05;14.68;;;7.90;;
78985;SDS011;68384;55.750;48.746;2023-03-23T03:29:07;14.25;;;8.18;;
78985;SDS011;68384;55.750;48.746;2023-03-23T03:30:09;15.13;;;7.78;;
78985;SDS011;68384;55.750;48.746;2023-03-23T03:31:17;12.63;;;7.93;;
78985;SDS011;68384;55.750;48.746;2023-03-23T03:32:21;12.82;;;7.60;;
78985;SDS011;68384;55.750;48.746;2023-03-23T03:33:27;15.88;;;8.10;;
78985;SDS011;68384;55.750;48.746;2023-03-23T03:34:32;13.27;;;7.40;;
78985;SDS011;68384;55.750;48.746;2023-03-23T03:35:36;16.52;;;8.20;;
78985;SDS011;68384;55.750;48.746;2023-03-23T03:36:39;12.65;;;7.95;;
78985;SDS011;68384;55.750;48.746;2023-03-23T03:37:43;12.30;;;8.60;;
78985;SDS011;68384;55.750;48.746;2023-03-23T03:38:45;11.60;;;7.55;;
78985;SDS011;68384;55.750;48.746;2023-03-23T03:39:50;14.70;;;8.35;;
78985;SDS011;68384;55.750;48.746;2023-03-23T03:40:51;13.40;;;8.05;;
78985;SDS011;68384;55.750;48.746;2023-03-23T03:41:54;13.35;;;8.60;;
78985;SDS011;68384;55.750;48.746;2023-03-23T03:42:56;12.50;;;7.63;;
78985;SDS011;68384;55.750;48.746;2023-03-23T03:43:58;13.73;;;7.80;;
78985;SDS011;68384;55.750;48.746;2023-03-23T03:45:00;12.68;;;7.03;;
78985;SDS011;68384;55.750;48.746;2023-03-23T03:46:02;11.52;;;6.93;;
78985;SDS011;68384;55.750;48.746;2023-03-23T03:47:04;11.95;;;7.22;;
78985;SDS011;68384;55.750;48.746;2023-03-23T03:48:06;13.35;;;7.65;;
78985;SDS011;68384;55.750;48.746;2023-03-23T03:49:09;13.27;;;7.68;;
78985;SDS011;68384;55.750;48.746;2023-03-23T03:50:14;13.07;;;8.50;;
78985;SDS011;68384;55.750;48.746;2023-03-23T03:52:19;10.15;;;7.15;;
78985;SDS011;68384;55.750;48.746;2023-03-23T03:53:20;13.32;;;8.00;;
78985;SDS011;68384;55.750;48.746;2023-03-23T03:54:22;13.45;;;8.05;;
78985;SDS011;68384;55.750;48.746;2023-03-23T03:55:24;11.93;;;8.20;;
78985;SDS011;68384;55.750;48.746;2023-03-23T03:56:28;11.50;;;7.10;;
78985;SDS011;68384;55.750;48.746;2023-03-23T03:57:32;12.55;;;7.55;;
78985;SDS011;68384;55.750;48.746;2023-03-23T03:58:34;14.38;;;7.20;;
78985;SDS011;68384;55.750;48.746;2023-03-23T03:59:36;13.43;;;7.85;;
78985;SDS011;68384;55.750;48.746;2023-03-23T04:00:39;13.38;;;7.47;;
78985;SDS011;68384;55.750;48.746;2023-03-23T04:01:41;13.98;;;8.05;;
78985;SDS011;68384;55.750;48.746;2023-03-23T04:02:44;12.80;;;7.55;;
78985;SDS011;68384;55.750;48.746;2023-03-23T04:03:51;13.90;;;7.72;;
78985;SDS011;68384;55.750;48.746;2023-03-23T04:04:54;11.65;;;7.35;;
78985;SDS011;68384;55.750;48.746;2023-03-23T04:05:57;13.70;;;8.88;;
78985;SDS011;68384;55.750;48.746;2023-03-23T04:06:59;12.43;;;7.60;;
78985;SDS011;68384;55.750;48.746;2023-03-23T04:08:02;11.75;;;7.75;;
78985;SDS011;68384;55.750;48.746;2023-03-23T04:09:05;14.82;;;8.40;;
78985;SDS011;68384;55.750;48.746;2023-03-23T04:10:09;12.88;;;8.35;;
78985;SDS011;68384;55.750;48.746;2023-03-23T04:11:12;12.27;;;7.57;;
78985;SDS011;68384;55.750;48.746;2023-03-23T04:12:16;12.15;;;8.13;;
78985;SDS011;68384;55.750;48.746;2023-03-23T04:13:17;13.15;;;8.15;;
78985;SDS011;68384;55.750;48.746;2023-03-23T04:14:19;13.30;;;8.57;;
78985;SDS011;68384;55.750;48.746;2023-03-23T04:15:21;12.02;;;7.57;;
78985;SDS011;68384;55.750;48.746;2023-03-23T04:16:23;12.15;;;7.68;;
78985;SDS011;68384;55.750;48.746;2023-03-23T04:17:26;11.75;;;7.95;;
78985;SDS011;68384;55.750;48.746;2023-03-23T04:18:29;12.15;;;8.00;;
78985;SDS011;68384;55.750;48.746;2023-03-23T04:19:32;13.25;;;7.85;;
78985;SDS011;68384;55.750;48.746;2023-03-23T04:20:34;13.85;;;8.32;;
78985;SDS011;68384;55.750;48.746;2023-03-23T04:21:39;14.02;;;8.13;;
78985;SDS011;68384;55.750;48.746;2023-03-23T04:23:44;13.15;;;7.28;;
78985;SDS011;68384;55.750;48.746;2023-03-23T04:24:46;12.50;;;7.65;;
78985;SDS011;68384;55.750;48.746;2023-03-23T04:25:49;13.95;;;7.78;;
78985;SDS011;68384;55.750;48.746;2023-03-23T04:26:53;11.80;;;7.78;;
78985;SDS011;68384;55.750;48.746;2023-03-23T04:27:55;12.68;;;8.25;;
78985;SDS011;68384;55.750;48.746;2023-03-23T04:28:57;11.73;;;7.68;;
78985;SDS011;68384;55.750;48.746;2023-03-23T04:29:59;11.23;;;7.47;;
78985;SDS011;68384;55.750;48.746;2023-03-23T04:31:03;12.13;;;7.78;;
78985;SDS011;68384;55.750;48.746;2023-03-23T04:32:05;11.40;;;7.63;;
78985;SDS011;68384;55.750;48.746;2023-03-23T04:33:07;15.38;;;8.38;;
78985;SDS011;68384;55.750;48.746;2023-03-23T04:34:09;10.88;;;7.65;;
78985;SDS011;68384;55.750;48.746;2023-03-23T04:35:13;12.40;;;7.65;;
78985;SDS011;68384;55.750;48.746;2023-03-23T04:36:15;10.98;;;7.50;;
78985;SDS011;68384;55.750;48.746;2023-03-23T04:37:19;12.98;;;7.40;;
78985;SDS011;68384;55.750;48.746;2023-03-23T04:38:26;10.27;;;7.00;;
78985;SDS011;68384;55.750;48.746;2023-03-23T04:40:35;11.02;;;7.43;;
78985;SDS011;68384;55.750;48.746;2023-03-23T04:41:38;12.57;;;7.43;;
78985;SDS011;68384;55.750;48.746;2023-03-23T04:42:40;13.18;;;7.53;;
78985;SDS011;68384;55.750;48.746;2023-03-23T04:43:46;12.48;;;7.35;;
78985;SDS011;68384;55.750;48.746;2023-03-23T04:44:52;14.38;;;7.68;;
78985;SDS011;68384;55.750;48.746;2023-03-23T04:45:55;10.75;;;7.30;;
78985;SDS011;68384;55.750;48.746;2023-03-23T04:47:00;14.45;;;7.63;;
78985;SDS011;68384;55.750;48.746;2023-03-23T04:48:03;13.02;;;8.40;;
78985;SDS011;68384;55.750;48.746;2023-03-23T04:49:05;14.50;;;7.82;;
78985;SDS011;68384;55.750;48.746;2023-03-23T04:50:08;10.93;;;7.32;;
78985;SDS011;68384;55.750;48.746;2023-03-23T04:51:10;13.35;;;7.78;;
78985;SDS011;68384;55.750;48.746;2023-03-23T04:52:13;11.73;;;7.30;;
78985;SDS011;68384;55.750;48.746;2023-03-23T04:53:16;12.70;;;7.72;;
78985;SDS011;68384;55.750;48.746;2023-03-23T04:54:19;11.35;;;7.60;;
78985;SDS011;68384;55.750;48.746;2023-03-23T04:55:20;12.80;;;7.78;;
78985;SDS011;68384;55.750;48.746;2023-03-23T04:56:23;11.93;;;7.55;;
78985;SDS011;68384;55.750;48.746;2023-03-23T04:57:24;13.98;;;8.65;;
78985;SDS011;68384;55.750;48.746;2023-03-23T04:58:28;13.07;;;7.93;;
78985;SDS011;68384;55.750;48.746;2023-03-23T04:59:34;12.73;;;7.85;;
78985;SDS011;68384;55.750;48.746;2023-03-23T05:00:36;11.13;;;7.63;;
78985;SDS011;68384;55.750;48.746;2023-03-23T05:01:38;10.82;;;7.25;;
78985;SDS011;68384;55.750;48.746;2023-03-23T05:02:40;11.32;;;7.40;;
78985;SDS011;68384;55.750;48.746;2023-03-23T05:03:43;13.77;;;8.25;;
78985;SDS011;68384;55.750;48.746;2023-03-23T05:04:45;13.00;;;8.25;;
78985;SDS011;68384;55.750;48.746;2023-03-23T05:05:47;11.05;;;7.38;;
78985;SDS011;68384;55.750;48.746;2023-03-23T05:06:52;13.27;;;7.43;;
78985;SDS011;68384;55.750;48.746;2023-03-23T05:07:54;11.27;;;8.30;;
78985;SDS011;68384;55.750;48.746;2023-03-23T05:08:57;13.05;;;7.68;;
78985;SDS011;68384;55.750;48.746;2023-03-23T05:11:00;12.82;;;8.45;;
78985;SDS011;68384;55.750;48.746;2023-03-23T05:12:03;11.43;;;7.47;;
78985;SDS011;68384;55.750;48.746;2023-03-23T05:13:06;11.90;;;7.30;;
78985;SDS011;68384;55.750;48.746;2023-03-23T05:14:09;12.35;;;7.25;;
78985;SDS011;68384;55.750;48.746;2023-03-23T05:15:10;11.77;;;7.07;;
78985;SDS011;68384;55.750;48.746;2023-03-23T05:16:14;12.25;;;7.90;;
78985;SDS011;68384;55.750;48.746;2023-03-23T05:17:15;12.95;;;8.15;;
78985;SDS011;68384;55.750;48.746;2023-03-23T05:18:19;12.02;;;7.57;;
78985;SDS011;68384;55.750;48.746;2023-03-23T05:19:20;14.90;;;8.25;;
78985;SDS011;68384;55.750;48.746;2023-03-23T05:20:23;12.02;;;8.63;;
78985;SDS011;68384;55.750;48.746;2023-03-23T05:21:25;13.20;;;8.20;;
78985;SDS011;68384;55.750;48.746;2023-03-23T05:22:28;16.60;;;8.35;;
78985;SDS011;68384;55.750;48.746;2023-03-23T05:23:32;15.40;;;9.07;;
78985;SDS011;68384;55.750;48.746;2023-03-23T05:24:37;13.90;;;8.75;;
78985;SDS011;68384;55.750;48.746;2023-03-23T05:25:39;13.40;;;7.75;;
78985;SDS011;68384;55.750;48.746;2023-03-23T05:26:41;14.75;;;8.38;;
78985;SDS011;68384;55.750;48.746;2023-03-23T05:27:42;13.38;;;8.38;;
78985;SDS011;68384;55.750;48.746;2023-03-23T05:28:49;11.68;;;7.85;;
78985;SDS011;68384;55.750;48.746;2023-03-23T05:29:52;13.52;;;8.38;;
78985;SDS011;68384;55.750;48.746;2023-03-23T05:30:55;12.85;;;7.78;;
78985;SDS011;68384;55.750;48.746;2023-03-23T05:31:57;11.95;;;8.50;;
78985;SDS011;68384;55.750;48.746;2023-03-23T05:33:00;15.88;;;8.18;;
78985;SDS011;68384;55.750;48.746;2023-03-23T05:34:01;13.63;;;8.50;;
78985;SDS011;68384;55.750;48.746;2023-03-23T05:35:04;12.70;;;8.77;;
78985;SDS011;68384;55.750;48.746;2023-03-23T05:36:06;12.02;;;8.00;;
78985;SDS011;68384;55.750;48.746;2023-03-23T05:37:11;15.32;;;8.18;;
78985;SDS011;68384;55.750;48.746;2023-03-23T05:38:12;15.70;;;8.27;;
78985;SDS011;68384;55.750;48.746;2023-03-23T05:39:15;13.07;;;8.63;;
78985;SDS011;68384;55.750;48.746;2023-03-23T05:40:19;12.73;;;8.02;;
78985;SDS011;68384;55.750;48.746;2023-03-23T05:41:21;15.20;;;8.77;;
78985;SDS011;68384;55.750;48.746;2023-03-23T05:42:23;13.68;;;7.90;;
78985;SDS011;68384;55.750;48.746;2023-03-23T05:43:26;12.23;;;8.27;;
78985;SDS011;68384;55.750;48.746;2023-03-23T05:44:28;16.35;;;8.05;;
78985;SDS011;68384;55.750;48.746;2023-03-23T05:45:30;14.00;;;8.15;;
78985;SDS011;68384;55.750;48.746;2023-03-23T05:46:33;16.10;;;8.55;;
78985;SDS011;68384;55.750;48.746;2023-03-23T05:47:34;14.88;;;9.02;;
78985;SDS011;68384;55.750;48.746;2023-03-23T05:48:36;13.88;;;8.30;;
78985;SDS011;68384;55.750;48.746;2023-03-23T05:49:38;13.20;;;8.82;;
78985;SDS011;68384;55.750;48.746;2023-03-23T05:50:41;12.60;;;7.60;;
78985;SDS011;68384;55.750;48.746;2023-03-23T05:51:43;14.18;;;9.02;;
78985;SDS011;68384;55.750;48.746;2023-03-23T05:52:46;14.75;;;8.25;;
78985;SDS011;68384;55.750;48.746;2023-03-23T05:53:48;14.40;;;9.18;;
78985;SDS011;68384;55.750;48.746;2023-03-23T05:54:51;15.80;;;8.27;;
78985;SDS011;68384;55.750;48.746;2023-03-23T05:55:57;13.90;;;9.00;;
78985;SDS011;68384;55.750;48.746;2023-03-23T05:57:00;13.63;;;8.60;;
78985;SDS011;68384;55.750;48.746;2023-03-23T05:58:01;15.65;;;9.40;;
78985;SDS011;68384;55.750;48.746;2023-03-23T05:59:04;16.55;;;8.50;;
78985;SDS011;68384;55.750;48.746;2023-03-23T06:00:06;16.30;;;9.20;;
78985;SDS011;68384;55.750;48.746;2023-03-23T06:01:19;14.10;;;8.63;;
78985;SDS011;68384;55.750;48.746;2023-03-23T06:02:20;14.40;;;8.90;;
78985;SDS011;68384;55.750;48.746;2023-03-23T06:03:23;15.35;;;8.90;;
78985;SDS011;68384;55.750;48.746;2023-03-23T06:04:25;15.07;;;8.45;;
78985;SDS011;68384;55.750;48.746;2023-03-23T06:05:28;17.33;;;8.32;;
78985;SDS011;68384;55.750;48.746;2023-03-23T06:06:29;14.15;;;8.35;;
78985;SDS011;68384;55.750;48.746;2023-03-23T06:07:32;14.35;;;8.43;;
78985;SDS011;68384;55.750;48.746;2023-03-23T06:08:33;12.75;;;8.25;;
78985;SDS011;68384;55.750;48.746;2023-03-23T06:09:37;14.05;;;8.05;;
78985;SDS011;68384;55.750;48.746;2023-03-23T06:10:39;17.98;;;8.65;;
78985;SDS011;68384;55.750;48.746;2023-03-23T06:11:42;14.32;;;9.02;;
78985;SDS011;68384;55.750;48.746;2023-03-23T06:12:44;13.45;;;9.02;;
78985;SDS011;68384;55.750;48.746;2023-03-23T06:13:46;18.98;;;8.57;;
78985;SDS011;68384;55.750;48.746;2023-03-23T06:14:48;12.90;;;8.60;;
78985;SDS011;68384;55.750;48.746;2023-03-23T06:15:54;13.77;;;8.45;;
78985;SDS011;68384;55.750;48.746;2023-03-23T06:16:57;13.82;;;8.27;;
78985;SDS011;68384;55.750;48.746;2023-03-23T06:18:00;15.65;;;8.35;;
78985;SDS011;68384;55.750;48.746;2023-03-23T06:19:03;13.32;;;8.15;;
78985;SDS011;68384;55.750;48.746;2023-03-23T06:20:06;15.57;;;8.43;;
78985;SDS011;68384;55.750;48.746;2023-03-23T06:21:11;15.18;;;8.50;;
78985;SDS011;68384;55.750;48.746;2023-03-23T06:22:14;13.18;;;8.57;;
78985;SDS011;68384;55.750;48.746;2023-03-23T06:23:16;13.32;;;8.80;;
78985;SDS011;68384;55.750;48.746;2023-03-23T06:24:19;14.35;;;8.02;;
78985;SDS011;68384;55.750;48.746;2023-03-23T06:25:21;11.65;;;8.43;;
78985;SDS011;68384;55.750;48.746;2023-03-23T06:26:26;11.93;;;8.10;;
78985;SDS011;68384;55.750;48.746;2023-03-23T06:27:34;13.27;;;8.57;;
78985;SDS011;68384;55.750;48.746;2023-03-23T06:28:35;12.30;;;8.20;;
78985;SDS011;68384;55.750;48.746;2023-03-23T06:29:38;14.27;;;7.75;;
78985;SDS011;68384;55.750;48.746;2023-03-23T06:30:40;11.10;;;8.05;;
78985;SDS011;68384;55.750;48.746;2023-03-23T06:31:43;11.82;;;7.18;;